createdAt,value
2019-04-04T00:00:57.605Z,977.32
2019-04-04T00:01:57.598Z,977.29
2019-04-04T00:02:57.575Z,977.23
2019-04-04T00:03:57.538Z,977.22
2019-04-04T00:04:57.845Z,977.25
2019-04-04T00:05:57.511Z,977.35
2019-04-04T00:06:58.094Z,977.28
2019-04-04T00:07:58.101Z,977.27
2019-04-04T00:08:57.481Z,977.24
2019-04-04T00:09:57.465Z,977.23
2019-04-04T00:10:57.462Z,977.20
2019-04-04T00:11:57.487Z,977.26
2019-04-04T00:12:57.453Z,977.23
2019-04-04T00:13:57.445Z,977.22
2019-04-04T00:14:57.430Z,977.36
2019-04-04T00:15:57.416Z,977.27
2019-04-04T00:16:57.414Z,977.35
2019-04-04T00:17:57.399Z,977.27
2019-04-04T00:18:59.060Z,977.29
2019-04-04T00:19:59.008Z,977.25
2019-04-04T00:20:57.371Z,977.18
2019-04-04T00:21:57.376Z,977.14
2019-04-04T00:22:57.328Z,977.27
2019-04-04T00:23:57.316Z,977.12
2019-04-04T00:24:57.324Z,977.07
2019-04-04T00:25:57.295Z,977.05
2019-04-04T00:26:57.323Z,977.19
2019-04-04T00:27:57.310Z,977.25
2019-04-04T00:28:57.290Z,977.41
2019-04-04T00:29:57.250Z,977.39
2019-04-04T00:30:57.256Z,977.42
2019-04-04T00:31:57.247Z,977.38
2019-04-04T00:32:57.243Z,977.44
2019-04-04T00:33:57.241Z,977.39
2019-04-04T00:34:57.822Z,977.41
2019-04-04T00:35:57.186Z,977.38
2019-04-04T00:36:57.171Z,977.41
2019-04-04T00:37:57.183Z,977.35
2019-04-04T00:38:57.150Z,977.35
2019-04-04T00:39:57.138Z,977.34
2019-04-04T00:40:57.147Z,977.33
2019-04-04T00:41:57.131Z,977.39
2019-04-04T00:42:57.146Z,977.37
2019-04-04T00:43:57.117Z,977.33
2019-04-04T00:44:57.083Z,977.31
2019-04-04T00:45:57.084Z,977.26
2019-04-04T00:46:57.083Z,977.20
2019-04-04T00:47:57.088Z,977.23
2019-04-04T00:48:57.055Z,977.26
2019-04-04T00:49:57.037Z,977.22
2019-04-04T00:50:57.023Z,977.26
2019-04-04T00:51:57.023Z,977.26
2019-04-04T00:52:57.031Z,977.19
2019-04-04T00:53:56.987Z,977.18
2019-04-04T00:54:56.994Z,977.20
2019-04-04T00:55:56.999Z,977.15
2019-04-04T00:56:56.971Z,977.18
2019-04-04T00:57:56.988Z,977.19
2019-04-04T00:58:56.932Z,977.20
2019-04-04T00:59:56.923Z,977.17
2019-04-04T01:00:56.946Z,977.15
2019-04-04T01:01:57.544Z,977.13
2019-04-04T01:02:58.282Z,977.08
2019-04-04T01:03:56.880Z,977.06
2019-04-04T01:04:56.867Z,976.99
2019-04-04T01:05:56.873Z,977.00
2019-04-04T01:06:56.870Z,976.98
2019-04-04T01:07:56.882Z,976.92
2019-04-04T01:08:56.844Z,976.92
2019-04-04T01:09:56.835Z,976.87
2019-04-04T01:10:56.809Z,976.87
2019-04-04T01:11:56.843Z,976.90
2019-04-04T01:12:56.809Z,976.85
2019-04-04T01:13:57.852Z,976.89
2019-04-04T01:14:58.090Z,976.95
2019-04-04T01:15:56.750Z,976.95
2019-04-04T01:16:56.758Z,976.90
2019-04-04T01:18:00.521Z,976.88
2019-04-04T01:18:56.744Z,976.82
2019-04-04T01:19:56.716Z,976.79
2019-04-04T01:20:56.695Z,976.86
2019-04-04T01:21:56.713Z,976.81
2019-04-04T01:22:56.766Z,976.76
2019-04-04T01:23:58.317Z,976.76
2019-04-04T01:24:56.665Z,976.65
2019-04-04T01:25:56.655Z,976.62
2019-04-04T01:26:56.657Z,976.67
2019-04-04T01:27:56.654Z,976.66
2019-04-04T01:28:56.626Z,976.69
2019-04-04T01:29:56.617Z,976.64
2019-04-04T01:30:56.593Z,976.62
2019-04-04T01:31:56.595Z,976.57
2019-04-04T01:32:56.599Z,976.58
2019-04-04T01:33:56.585Z,976.55
2019-04-04T01:34:56.572Z,976.56
2019-04-04T01:35:56.522Z,976.54
2019-04-04T01:36:57.133Z,976.56
2019-04-04T01:37:58.257Z,976.56
2019-04-04T01:38:58.080Z,976.57
2019-04-04T01:39:56.514Z,976.60
2019-04-04T01:40:56.482Z,976.47
2019-04-04T01:41:56.465Z,976.48
2019-04-04T01:42:56.494Z,976.42
2019-04-04T01:44:04.785Z,976.48
2019-04-04T01:44:57.441Z,976.47
2019-04-04T01:45:56.447Z,976.55
2019-04-04T01:46:56.427Z,976.53
2019-04-04T01:47:56.440Z,976.59
2019-04-04T01:48:56.412Z,976.61
2019-04-04T01:49:56.395Z,976.59
2019-04-04T01:50:56.386Z,976.62
2019-04-04T01:51:57.695Z,976.58
2019-04-04T01:52:58.869Z,976.55
2019-04-04T01:53:56.325Z,976.58
2019-04-04T01:54:56.340Z,976.54
2019-04-04T01:55:56.337Z,976.52
2019-04-04T01:56:56.307Z,976.56
2019-04-04T01:57:56.312Z,976.51
2019-04-04T01:58:56.320Z,976.44
2019-04-04T01:59:56.298Z,976.41
2019-04-04T02:00:56.260Z,976.33
2019-04-04T02:01:56.252Z,976.29
2019-04-04T02:02:56.251Z,976.19
2019-04-04T02:03:56.257Z,976.22
2019-04-04T02:04:56.497Z,976.27
2019-04-04T02:05:58.120Z,976.27
2019-04-04T02:06:58.874Z,976.23
2019-04-04T02:07:56.202Z,976.22
2019-04-04T02:08:56.213Z,976.17
2019-04-04T02:09:56.177Z,976.25
2019-04-04T02:10:56.176Z,976.27
2019-04-04T02:11:56.132Z,976.28
2019-04-04T02:12:56.138Z,976.20
2019-04-04T02:13:56.163Z,976.18
2019-04-04T02:14:56.130Z,976.10
2019-04-04T02:15:56.095Z,976.12
2019-04-04T02:16:56.095Z,976.13
2019-04-04T02:17:56.088Z,976.14
2019-04-04T02:18:56.083Z,976.20
2019-04-04T02:19:56.468Z,976.20
2019-04-04T02:20:57.845Z,976.23
2019-04-04T02:21:56.048Z,976.15
2019-04-04T02:22:56.012Z,976.12
2019-04-04T02:23:56.037Z,976.01
2019-04-04T02:24:56.009Z,976.03
2019-04-04T02:25:55.977Z,976.05
2019-04-04T02:26:55.977Z,976.03
2019-04-04T02:27:55.963Z,976.07
2019-04-04T02:28:55.989Z,976.11
2019-04-04T02:29:55.957Z,976.07
2019-04-04T02:30:55.935Z,976.08
2019-04-04T02:31:55.942Z,976.07
2019-04-04T02:32:59.457Z,976.08
2019-04-04T02:33:55.936Z,976.11
2019-04-04T02:34:55.898Z,976.14
2019-04-04T02:35:55.899Z,976.16
2019-04-04T02:36:55.876Z,976.15
2019-04-04T02:37:56.187Z,976.17
2019-04-04T02:38:57.577Z,976.19
2019-04-04T02:39:55.862Z,976.22
2019-04-04T02:40:55.828Z,976.25
2019-04-04T02:41:55.807Z,976.25
2019-04-04T02:42:55.806Z,976.17
2019-04-04T02:43:59.405Z,976.22
2019-04-04T02:44:55.774Z,976.15
2019-04-04T02:45:55.763Z,976.11
2019-04-04T02:46:55.766Z,975.97
2019-04-04T02:47:55.751Z,975.96
2019-04-04T02:48:56.286Z,975.91
2019-04-04T02:49:55.742Z,975.86
2019-04-04T02:50:55.725Z,975.85
2019-04-04T02:51:55.723Z,975.83
2019-04-04T02:52:55.699Z,975.83
2019-04-04T02:53:55.721Z,975.72
2019-04-04T02:54:58.177Z,975.73
2019-04-04T02:55:55.671Z,975.68
2019-04-04T02:56:55.688Z,975.63
2019-04-04T02:57:55.652Z,975.63
2019-04-04T02:58:55.620Z,975.69
2019-04-04T02:59:55.640Z,975.70
2019-04-04T03:00:59.333Z,975.71
2019-04-04T03:01:55.617Z,975.77
2019-04-04T03:02:55.584Z,975.77
2019-04-04T03:03:55.572Z,975.83
2019-04-04T03:04:55.611Z,975.87
2019-04-04T03:05:55.543Z,975.97
2019-04-04T03:06:58.497Z,975.97
2019-04-04T03:07:55.540Z,975.98
2019-04-04T03:08:55.571Z,975.98
2019-04-04T03:09:55.542Z,975.92
2019-04-04T03:10:55.520Z,975.87
2019-04-04T03:11:55.478Z,975.80
2019-04-04T03:12:57.988Z,975.80
2019-04-04T03:13:55.471Z,975.88
2019-04-04T03:14:55.481Z,975.95
2019-04-04T03:15:55.436Z,975.97
2019-04-04T03:16:56.918Z,976.01
2019-04-04T03:17:55.436Z,976.06
2019-04-04T03:18:55.428Z,976.06
2019-04-04T03:19:55.445Z,976.06
2019-04-04T03:20:55.415Z,976.10
2019-04-04T03:21:56.116Z,976.15
2019-04-04T03:23:00.156Z,976.13
2019-04-04T03:23:56.346Z,976.18
2019-04-04T03:24:55.381Z,976.11
2019-04-04T03:25:55.336Z,976.10
2019-04-04T03:26:55.361Z,976.05
2019-04-04T03:27:57.785Z,976.06
2019-04-04T03:28:55.303Z,976.03
2019-04-04T03:29:55.307Z,976.01
2019-04-04T03:31:02.471Z,975.99
2019-04-04T03:31:56.285Z,976.01
2019-04-04T03:32:55.760Z,976.02
2019-04-04T03:33:55.238Z,976.00
2019-04-04T03:34:55.272Z,975.99
2019-04-04T03:35:55.228Z,975.95
2019-04-04T03:36:55.214Z,975.95
2019-04-04T03:37:55.202Z,976.01
2019-04-04T03:38:55.198Z,976.03
2019-04-04T03:39:55.227Z,976.05
2019-04-04T03:40:57.936Z,976.02
2019-04-04T03:41:55.168Z,975.96
2019-04-04T03:42:55.153Z,975.97
2019-04-04T03:43:55.159Z,975.98
2019-04-04T03:44:55.152Z,975.93
2019-04-04T03:45:55.133Z,975.94
2019-04-04T03:46:55.110Z,975.92
2019-04-04T03:47:55.109Z,975.93
2019-04-04T03:48:55.079Z,975.92
2019-04-04T03:49:57.571Z,975.94
2019-04-04T03:50:57.416Z,975.93
2019-04-04T03:51:55.068Z,975.89
2019-04-04T03:52:55.047Z,975.86
2019-04-04T03:53:55.031Z,975.86
2019-04-04T03:54:56.206Z,975.79
2019-04-04T03:55:55.042Z,975.75
2019-04-04T03:56:54.998Z,975.73
2019-04-04T03:57:55.333Z,975.75
2019-04-04T03:58:54.990Z,975.76
2019-04-04T03:59:54.971Z,975.78
2019-04-04T04:00:54.993Z,975.65
2019-04-04T04:01:54.945Z,975.60
2019-04-04T04:02:54.967Z,975.59
2019-04-04T04:03:55.701Z,975.58
2019-04-04T04:04:54.926Z,975.49
2019-04-04T04:05:54.935Z,975.54
2019-04-04T04:06:54.915Z,975.51
2019-04-04T04:07:54.910Z,975.48
2019-04-04T04:08:55.222Z,975.44
2019-04-04T04:09:59.265Z,975.37
2019-04-04T04:10:55.879Z,975.33
2019-04-04T04:11:54.861Z,975.34
2019-04-04T04:12:54.830Z,975.34
2019-04-04T04:13:54.821Z,975.32
2019-04-04T04:14:55.170Z,975.38
2019-04-04T04:15:54.822Z,975.41
2019-04-04T04:16:54.786Z,975.42
2019-04-04T04:17:54.773Z,975.51
2019-04-04T04:18:55.455Z,975.40
2019-04-04T04:19:54.760Z,975.33
2019-04-04T04:20:54.799Z,975.34
2019-04-04T04:21:54.759Z,975.28
2019-04-04T04:22:54.724Z,975.26
2019-04-04T04:23:57.193Z,975.21
2019-04-04T04:24:54.715Z,975.30
2019-04-04T04:25:54.716Z,975.27
2019-04-04T04:26:54.703Z,975.27
2019-04-04T04:27:54.669Z,975.34
2019-04-04T04:28:54.640Z,975.34
2019-04-04T04:29:54.650Z,975.31
2019-04-04T04:30:54.703Z,975.32
2019-04-04T04:31:54.643Z,975.37
2019-04-04T04:32:57.046Z,975.39
2019-04-04T04:33:54.603Z,975.41
2019-04-04T04:34:54.596Z,975.38
2019-04-04T04:35:54.598Z,975.47
2019-04-04T04:36:54.577Z,975.50
2019-04-04T04:37:54.564Z,975.44
2019-04-04T04:38:58.642Z,975.43
2019-04-04T04:39:55.538Z,975.48
2019-04-04T04:40:54.576Z,975.49
2019-04-04T04:41:54.566Z,975.47
2019-04-04T04:42:54.503Z,975.50
2019-04-04T04:43:54.537Z,975.46
2019-04-04T04:44:54.479Z,975.54
2019-04-04T04:45:54.506Z,975.53
2019-04-04T04:46:54.482Z,975.53
2019-04-04T04:47:57.047Z,975.56
2019-04-04T04:48:54.456Z,975.64
2019-04-04T04:49:55.385Z,975.54
2019-04-04T04:50:54.445Z,975.59
2019-04-04T04:51:54.416Z,975.64
2019-04-04T04:52:54.405Z,975.65
2019-04-04T04:53:54.386Z,975.69
2019-04-04T04:54:54.670Z,975.72
2019-04-04T04:55:54.379Z,975.71
2019-04-04T04:56:54.387Z,975.73
2019-04-04T04:57:56.290Z,975.76
2019-04-04T04:58:55.654Z,975.74
2019-04-04T04:59:54.354Z,975.80
2019-04-04T05:00:54.331Z,975.76
2019-04-04T05:01:54.310Z,975.73
2019-04-04T05:02:54.292Z,975.77
2019-04-04T05:03:56.563Z,975.70
2019-04-04T05:04:54.273Z,975.76
2019-04-04T05:05:54.286Z,975.78
2019-04-04T05:06:54.272Z,975.87
2019-04-04T05:07:54.991Z,975.90
2019-04-04T05:08:54.218Z,975.89
2019-04-04T05:09:54.228Z,975.86
2019-04-04T05:10:54.217Z,975.90
2019-04-04T05:11:54.217Z,975.90
2019-04-04T05:12:54.218Z,975.93
2019-04-04T05:13:54.163Z,976.02
2019-04-04T05:14:54.169Z,975.97
2019-04-04T05:15:54.178Z,976.01
2019-04-04T05:16:54.135Z,975.95
2019-04-04T05:17:54.136Z,975.93
2019-04-04T05:18:54.115Z,975.94
2019-04-04T05:19:54.125Z,975.96
2019-04-04T05:20:56.046Z,975.92
2019-04-04T05:21:54.089Z,975.85
2019-04-04T05:22:54.081Z,975.89
2019-04-04T05:23:54.059Z,975.83
2019-04-04T05:25:07.281Z,975.82
2019-04-04T05:25:55.111Z,975.77
2019-04-04T05:26:54.029Z,975.79
2019-04-04T05:27:54.077Z,975.72
2019-04-04T05:28:56.808Z,975.69
2019-04-04T05:29:53.998Z,975.81
2019-04-04T05:30:54.014Z,975.72
2019-04-04T05:31:53.972Z,975.80
2019-04-04T05:32:56.380Z,975.77
2019-04-04T05:33:53.967Z,975.87
2019-04-04T05:34:53.985Z,975.75
2019-04-04T05:35:53.959Z,975.81
2019-04-04T05:36:53.942Z,975.80
2019-04-04T05:37:53.952Z,975.79
2019-04-04T05:38:53.909Z,975.86
2019-04-04T05:39:55.304Z,975.81
2019-04-04T05:40:57.832Z,975.81
2019-04-04T05:41:53.884Z,975.75
2019-04-04T05:42:53.841Z,975.72
2019-04-04T05:43:53.839Z,975.68
2019-04-04T05:44:53.831Z,975.69
2019-04-04T05:45:53.828Z,975.63
2019-04-04T05:46:53.843Z,975.68
2019-04-04T05:47:55.927Z,975.73
2019-04-04T05:48:53.807Z,975.70
2019-04-04T05:49:53.805Z,975.72
2019-04-04T05:50:53.768Z,975.74
2019-04-04T05:51:53.794Z,975.77
2019-04-04T05:52:53.777Z,975.78
2019-04-04T05:53:53.731Z,975.77
2019-04-04T05:54:53.815Z,975.85
2019-04-04T05:55:53.751Z,975.86
2019-04-04T05:56:53.741Z,975.88
2019-04-04T05:57:53.717Z,975.92
2019-04-04T05:58:53.820Z,975.98
2019-04-04T05:59:55.933Z,975.93
2019-04-04T06:00:53.659Z,975.97
2019-04-04T06:01:53.685Z,975.90
2019-04-04T06:02:53.650Z,975.97
2019-04-04T06:03:53.650Z,975.97
2019-04-04T06:04:55.360Z,975.97
2019-04-04T06:05:53.633Z,976.00
2019-04-04T06:06:55.623Z,976.00
2019-04-04T06:07:53.580Z,976.01
2019-04-04T06:08:53.578Z,976.03
2019-04-04T06:09:53.897Z,976.12
2019-04-04T06:10:53.566Z,976.08
2019-04-04T06:11:53.859Z,976.07
2019-04-04T06:12:54.366Z,976.10
2019-04-04T06:13:53.553Z,976.11
2019-04-04T06:14:53.550Z,976.09
2019-04-04T06:15:53.542Z,976.12
2019-04-04T06:16:53.526Z,976.06
2019-04-04T06:17:53.507Z,976.08
2019-04-04T06:18:53.488Z,976.09
2019-04-04T06:19:53.481Z,976.12
2019-04-04T06:20:53.458Z,976.14
2019-04-04T06:21:53.494Z,976.13
2019-04-04T06:22:53.411Z,976.14
2019-04-04T06:23:55.665Z,976.15
2019-04-04T06:24:53.404Z,976.15
2019-04-04T06:25:53.421Z,976.16
2019-04-04T06:26:53.434Z,976.18
2019-04-04T06:27:53.370Z,976.10
2019-04-04T06:28:53.378Z,976.13
2019-04-04T06:29:53.338Z,976.13
2019-04-04T06:30:54.259Z,976.12
2019-04-04T06:31:53.358Z,976.20
2019-04-04T06:32:53.316Z,976.19
2019-04-04T06:33:53.332Z,976.20
2019-04-04T06:34:56.591Z,976.24
2019-04-04T06:35:53.286Z,976.20
2019-04-04T06:36:53.326Z,976.21
2019-04-04T06:37:53.285Z,976.23
2019-04-04T06:38:53.957Z,976.16
2019-04-04T06:39:54.440Z,976.15
2019-04-04T06:40:53.237Z,976.17
2019-04-04T06:41:53.297Z,976.12
2019-04-04T06:42:53.274Z,976.19
2019-04-04T06:43:53.204Z,976.18
2019-04-04T06:44:54.315Z,976.24
2019-04-04T06:45:53.211Z,976.26
2019-04-04T06:46:53.496Z,976.24
2019-04-04T06:47:53.177Z,976.27
2019-04-04T06:48:53.154Z,976.27
2019-04-04T06:49:53.132Z,976.23
2019-04-04T06:50:53.132Z,976.26
2019-04-04T06:51:53.150Z,976.28
2019-04-04T06:52:53.121Z,976.23
2019-04-04T06:53:53.694Z,976.25
2019-04-04T06:54:53.094Z,976.24
2019-04-04T06:55:53.087Z,976.20
2019-04-04T06:56:53.155Z,976.19
2019-04-04T06:57:53.063Z,976.23
2019-04-04T06:58:53.046Z,976.17
2019-04-04T06:59:53.031Z,976.18
2019-04-04T07:00:53.015Z,976.19
2019-04-04T07:01:53.054Z,976.19
2019-04-04T07:02:55.153Z,976.19
2019-04-04T07:03:52.965Z,976.22
2019-04-04T07:04:52.980Z,976.26
2019-04-04T07:05:52.960Z,976.22
2019-04-04T07:06:52.998Z,976.21
2019-04-04T07:07:52.955Z,976.16
2019-04-04T07:08:52.932Z,976.25
2019-04-04T07:09:52.931Z,976.18
2019-04-04T07:10:58.175Z,976.23
2019-04-04T07:11:53.948Z,976.18
2019-04-04T07:13:04.726Z,976.24
2019-04-04T07:13:53.876Z,976.22
2019-04-04T07:14:52.864Z,976.20
2019-04-04T07:16:06.250Z,976.24
2019-04-04T07:16:53.926Z,976.20
2019-04-04T07:17:52.897Z,976.26
2019-04-04T07:18:52.821Z,976.21
2019-04-04T07:19:52.820Z,976.31
2019-04-04T07:20:52.799Z,976.28
2019-04-04T07:21:52.790Z,976.35
2019-04-04T07:22:55.657Z,976.30
2019-04-04T07:23:52.761Z,976.38
2019-04-04T07:24:52.755Z,976.29
2019-04-04T07:25:53.517Z,976.21
2019-04-04T07:26:52.734Z,976.23
2019-04-04T07:27:52.755Z,976.24
2019-04-04T07:28:54.006Z,976.26
2019-04-04T07:29:52.676Z,976.28
2019-04-04T07:30:54.568Z,976.30
2019-04-04T07:31:52.669Z,976.33
2019-04-04T07:32:52.687Z,976.31
2019-04-04T07:33:52.651Z,976.32
2019-04-04T07:34:52.620Z,976.26
2019-04-04T07:35:52.677Z,976.23
2019-04-04T07:36:52.610Z,976.18
2019-04-04T07:37:56.633Z,976.21
2019-04-04T07:38:52.600Z,976.30
2019-04-04T07:39:52.592Z,976.24
2019-04-04T07:40:52.618Z,976.29
2019-04-04T07:41:52.601Z,976.24
2019-04-04T07:42:52.687Z,976.22
2019-04-04T07:43:52.572Z,976.22
2019-04-04T07:44:54.444Z,976.21
2019-04-04T07:45:55.170Z,976.22
2019-04-04T07:46:53.514Z,976.30
2019-04-04T07:47:52.540Z,976.24
2019-04-04T07:48:52.490Z,976.24
2019-04-04T07:49:53.210Z,976.30
2019-04-04T07:50:52.506Z,976.29
2019-04-04T07:51:52.638Z,976.31
2019-04-04T07:52:52.791Z,976.37
2019-04-04T07:53:53.042Z,976.33
2019-04-04T07:54:52.476Z,976.33
2019-04-04T07:55:53.051Z,976.35
2019-04-04T07:56:59.495Z,976.42
2019-04-04T07:57:52.437Z,976.33
2019-04-04T07:58:52.370Z,976.35
2019-04-04T07:59:52.382Z,976.38
2019-04-04T08:00:52.367Z,976.36
2019-04-04T08:01:52.345Z,976.37
2019-04-04T08:02:52.406Z,976.36
2019-04-04T08:03:52.374Z,976.31
2019-04-04T08:04:52.394Z,976.28
2019-04-04T08:05:52.328Z,976.28
2019-04-04T08:06:52.308Z,976.25
2019-04-04T08:07:52.298Z,976.31
2019-04-04T08:08:52.307Z,976.26
2019-04-04T08:09:52.258Z,976.26
2019-04-04T08:10:52.259Z,976.28
2019-04-04T08:11:52.258Z,976.24
2019-04-04T08:12:52.229Z,976.41
2019-04-04T08:13:52.257Z,976.35
2019-04-04T08:14:53.211Z,976.41
2019-04-04T08:15:52.198Z,976.36
2019-04-04T08:16:52.201Z,976.42
2019-04-04T08:17:52.185Z,976.37
2019-04-04T08:18:52.173Z,976.32
2019-04-04T08:19:59.492Z,976.33
2019-04-04T08:20:53.145Z,976.30
2019-04-04T08:21:52.143Z,976.24
2019-04-04T08:22:52.379Z,976.31
2019-04-04T08:23:52.168Z,976.33
2019-04-04T08:24:52.063Z,976.26
2019-04-04T08:25:52.073Z,976.30
2019-04-04T08:26:52.088Z,976.28
2019-04-04T08:27:52.056Z,976.26
2019-04-04T08:28:52.061Z,976.30
2019-04-04T08:29:52.049Z,976.34
2019-04-04T08:30:52.033Z,976.39
2019-04-04T08:31:52.025Z,976.39
2019-04-04T08:32:52.368Z,976.42
2019-04-04T08:33:52.057Z,976.44
2019-04-04T08:34:51.984Z,976.40
2019-04-04T08:35:51.984Z,976.42
2019-04-04T08:36:51.983Z,976.42
2019-04-04T08:37:53.509Z,976.36
2019-04-04T08:38:52.226Z,976.45
2019-04-04T08:39:51.933Z,976.36
2019-04-04T08:40:51.913Z,976.40
2019-04-04T08:41:52.503Z,976.44
2019-04-04T08:42:52.271Z,976.53
2019-04-04T08:43:51.904Z,976.54
2019-04-04T08:44:52.049Z,976.57
2019-04-04T08:45:51.893Z,976.62
2019-04-04T08:46:51.848Z,976.63
2019-04-04T08:47:51.918Z,976.63
2019-04-04T08:48:51.880Z,976.63
2019-04-04T08:49:51.871Z,976.65
2019-04-04T08:50:51.805Z,976.63
2019-04-04T08:51:51.799Z,976.67
2019-04-04T08:52:51.790Z,976.57
2019-04-04T08:53:51.825Z,976.55
2019-04-04T08:54:51.781Z,976.54
2019-04-04T08:55:51.756Z,976.55
2019-04-04T08:56:52.089Z,976.56
2019-04-04T08:57:51.745Z,976.58
2019-04-04T08:58:51.917Z,976.56
2019-04-04T08:59:51.718Z,976.53
2019-04-04T09:00:51.930Z,976.56
2019-04-04T09:01:51.714Z,976.48
2019-04-04T09:02:51.700Z,976.52
2019-04-04T09:03:51.676Z,976.56
2019-04-04T09:04:51.759Z,976.53
2019-04-04T09:05:51.757Z,976.50
2019-04-04T09:06:51.662Z,976.51
2019-04-04T09:07:51.776Z,976.49
2019-04-04T09:08:51.640Z,976.49
2019-04-04T09:09:51.687Z,976.50
2019-04-04T09:10:51.587Z,976.43
2019-04-04T09:11:51.602Z,976.41
2019-04-04T09:12:51.590Z,976.38
2019-04-04T09:13:51.627Z,976.47
2019-04-04T09:14:51.554Z,976.38
2019-04-04T09:15:51.761Z,976.45
2019-04-04T09:16:51.511Z,976.35
2019-04-04T09:17:51.521Z,976.38
2019-04-04T09:18:52.664Z,976.39
2019-04-04T09:19:51.502Z,976.35
2019-04-04T09:20:51.469Z,976.35
2019-04-04T09:21:51.522Z,976.30
2019-04-04T09:22:51.448Z,976.33
2019-04-04T09:23:51.476Z,976.32
2019-04-04T09:24:51.472Z,976.32
2019-04-04T09:25:51.418Z,976.38
2019-04-04T09:26:51.414Z,976.39
2019-04-04T09:27:51.397Z,976.42
2019-04-04T09:28:51.414Z,976.51
2019-04-04T09:29:51.408Z,976.52
2019-04-04T09:30:51.378Z,976.42
2019-04-04T09:31:51.362Z,976.54
2019-04-04T09:32:51.349Z,976.55
2019-04-04T09:33:51.339Z,976.55
2019-04-04T09:34:51.365Z,976.54
2019-04-04T09:35:51.313Z,976.58
2019-04-04T09:36:51.302Z,976.56
2019-04-04T09:37:51.283Z,976.57
2019-04-04T09:38:51.269Z,976.67
2019-04-04T09:39:51.319Z,976.63
2019-04-04T09:40:51.294Z,976.61
2019-04-04T09:41:51.254Z,976.61
2019-04-04T09:42:51.259Z,976.59
2019-04-04T09:43:51.237Z,976.56
2019-04-04T09:44:51.238Z,976.62
2019-04-04T09:45:51.247Z,976.65
2019-04-04T09:47:04.588Z,976.66
2019-04-04T09:47:52.182Z,976.57
2019-04-04T09:48:51.176Z,976.57
2019-04-04T09:49:51.173Z,976.52
2019-04-04T09:50:51.175Z,976.47
2019-04-04T09:51:51.144Z,976.42
2019-04-04T09:52:51.119Z,976.47
2019-04-04T09:53:53.154Z,976.47
2019-04-04T09:54:51.144Z,976.52
2019-04-04T09:55:51.073Z,976.47
2019-04-04T09:56:51.069Z,976.51
2019-04-04T09:57:51.060Z,976.53
2019-04-04T09:58:51.057Z,976.54
2019-04-04T09:59:51.080Z,976.65
2019-04-04T10:00:51.040Z,976.65
2019-04-04T10:01:51.015Z,976.74
2019-04-04T10:02:51.019Z,976.68
2019-04-04T10:03:51.011Z,976.71
2019-04-04T10:04:51.009Z,976.66
2019-04-04T10:05:51.320Z,976.67
2019-04-04T10:06:50.971Z,976.64
2019-04-04T10:07:50.978Z,976.65
2019-04-04T10:08:50.957Z,976.69
2019-04-04T10:09:50.960Z,976.62
2019-04-04T10:10:50.926Z,976.64
2019-04-04T10:11:50.912Z,976.59
2019-04-04T10:12:50.909Z,976.57
2019-04-04T10:13:50.910Z,976.58
2019-04-04T10:14:50.921Z,976.54
2019-04-04T10:15:50.881Z,976.50
2019-04-04T10:16:50.890Z,976.56
2019-04-04T10:17:50.864Z,976.57
2019-04-04T10:18:50.929Z,976.59
2019-04-04T10:19:50.870Z,976.54
2019-04-04T10:20:50.844Z,976.57
2019-04-04T10:21:50.824Z,976.53
2019-04-04T10:22:50.827Z,976.51
2019-04-04T10:23:50.781Z,976.53
2019-04-04T10:24:50.802Z,976.59
2019-04-04T10:25:50.811Z,976.61
2019-04-04T10:26:50.771Z,976.64
2019-04-04T10:27:50.777Z,976.68
2019-04-04T10:28:50.733Z,976.74
2019-04-04T10:29:50.820Z,976.77
2019-04-04T10:30:50.728Z,976.73
2019-04-04T10:31:50.711Z,976.67
2019-04-04T10:32:50.686Z,976.68
2019-04-04T10:33:50.698Z,976.64
2019-04-04T10:34:50.701Z,976.63
2019-04-04T10:35:50.705Z,976.58
2019-04-04T10:36:50.648Z,976.55
2019-04-04T10:37:50.685Z,976.52
2019-04-04T10:38:50.631Z,976.47
2019-04-04T10:39:50.612Z,976.48
2019-04-04T10:40:50.650Z,976.53
2019-04-04T10:41:50.625Z,976.53
2019-04-04T10:42:50.608Z,976.62
2019-04-04T10:43:50.575Z,976.68
2019-04-04T10:44:50.577Z,976.72
2019-04-04T10:45:50.576Z,976.72
2019-04-04T10:46:50.541Z,976.67
2019-04-04T10:47:50.536Z,976.67
2019-04-04T10:48:50.482Z,976.72
2019-04-04T10:49:50.538Z,976.80
2019-04-04T10:50:50.563Z,976.82
2019-04-04T10:51:50.488Z,976.81
2019-04-04T10:52:50.502Z,976.91
2019-04-04T10:53:50.471Z,976.84
2019-04-04T10:54:50.476Z,976.82
2019-04-04T10:55:50.488Z,976.89
2019-04-04T10:56:50.452Z,976.85
2019-04-04T10:57:50.428Z,976.85
2019-04-04T10:58:50.413Z,976.90
2019-04-04T10:59:50.409Z,976.92
2019-04-04T11:00:50.467Z,977.02
2019-04-04T11:01:50.391Z,976.93
2019-04-04T11:02:50.403Z,976.99
2019-04-04T11:03:50.374Z,977.01
2019-04-04T11:04:50.359Z,977.02
2019-04-04T11:05:50.357Z,976.93
2019-04-04T11:06:50.344Z,976.95
2019-04-04T11:07:50.343Z,976.96
2019-04-04T11:08:50.343Z,976.99
2019-04-04T11:09:50.328Z,976.97
2019-04-04T11:10:50.385Z,976.94
2019-04-04T11:11:50.314Z,976.96
2019-04-04T11:12:50.273Z,977.02
2019-04-04T11:13:50.259Z,976.98
2019-04-04T11:14:50.262Z,977.04
2019-04-04T11:15:50.250Z,977.00
2019-04-04T11:16:50.221Z,976.96
2019-04-04T11:17:50.210Z,976.97
2019-04-04T11:18:50.199Z,976.91
2019-04-04T11:19:50.200Z,976.90
2019-04-04T11:20:50.205Z,976.85
2019-04-04T11:21:50.177Z,976.83
2019-04-04T11:22:50.179Z,976.88
2019-04-04T11:23:50.168Z,976.85
2019-04-04T11:24:50.140Z,976.90
2019-04-04T11:25:50.135Z,976.93
2019-04-04T11:26:50.115Z,976.94
2019-04-04T11:27:50.127Z,977.07
2019-04-04T11:28:50.091Z,977.18
2019-04-04T11:29:50.100Z,977.19
2019-04-04T11:30:50.079Z,977.17
2019-04-04T11:31:50.050Z,977.23
2019-04-04T11:32:50.035Z,977.20
2019-04-04T11:33:50.033Z,977.21
2019-04-04T11:34:53.390Z,977.21
2019-04-04T11:35:50.024Z,977.19
2019-04-04T11:36:50.005Z,977.24
2019-04-04T11:37:49.994Z,977.28
2019-04-04T11:38:49.991Z,977.29
2019-04-04T11:39:54.990Z,977.24
2019-04-04T11:40:50.979Z,977.28
2019-04-04T11:41:49.934Z,977.27
2019-04-04T11:42:49.973Z,977.32
2019-04-04T11:43:49.935Z,977.31
2019-04-04T11:44:49.916Z,977.34
2019-04-04T11:45:49.939Z,977.35
2019-04-04T11:46:49.906Z,977.37
2019-04-04T11:47:49.891Z,977.39
2019-04-04T11:48:49.872Z,977.40
2019-04-04T11:49:49.875Z,977.36
2019-04-04T11:50:49.848Z,977.36
2019-04-04T11:51:49.870Z,977.41
2019-04-04T11:52:50.283Z,977.39
2019-04-04T11:53:49.817Z,977.36
2019-04-04T11:54:49.811Z,977.40
2019-04-04T11:55:49.796Z,977.45
2019-04-04T11:56:49.825Z,977.47
2019-04-04T11:57:49.782Z,977.47
2019-04-04T11:58:49.777Z,977.47
2019-04-04T11:59:49.746Z,977.41
2019-04-04T12:00:49.756Z,977.44
2019-04-04T12:01:49.771Z,977.43
2019-04-04T12:02:49.718Z,977.44
2019-04-04T12:03:49.716Z,977.44
2019-04-04T12:04:49.690Z,977.39
2019-04-04T12:05:49.684Z,977.52
2019-04-04T12:06:49.739Z,977.49
2019-04-04T12:07:49.673Z,977.50
2019-04-04T12:08:49.655Z,977.43
2019-04-04T12:09:49.627Z,977.37
2019-04-04T12:10:49.638Z,977.34
2019-04-04T12:11:49.633Z,977.28
2019-04-04T12:12:49.606Z,977.33
2019-04-04T12:13:50.624Z,977.32
2019-04-04T12:14:49.577Z,977.35
2019-04-04T12:15:49.599Z,977.40
2019-04-04T12:16:49.573Z,977.34
2019-04-04T12:17:49.563Z,977.43
2019-04-04T12:18:49.560Z,977.38
2019-04-04T12:19:49.535Z,977.39
2019-04-04T12:20:49.545Z,977.42
2019-04-04T12:21:49.512Z,977.46
2019-04-04T12:22:49.498Z,977.45
2019-04-04T12:23:51.416Z,977.52
2019-04-04T12:24:49.492Z,977.45
2019-04-04T12:25:49.497Z,977.34
2019-04-04T12:26:49.444Z,977.32
2019-04-04T12:27:49.463Z,977.21
2019-04-04T12:28:49.419Z,977.20